sensor_id;sensor_type;location;lat;lon;timestamp;temperature;humidity
79698;SHT31;69168;42.708;23.286;2023-04-24T00:01:27;13.66;54.19
79698;SHT31;69168;42.708;23.286;2023-04-24T00:03:55;13.63;54.75
79698;SHT31;69168;42.708;23.286;2023-04-24T00:06:27;13.57;54.94
79698;SHT31;69168;42.708;23.286;2023-04-24T00:08:59;13.62;56.43
79698;SHT31;69168;42.708;23.286;2023-04-24T00:11:25;13.69;55.13
79698;SHT31;69168;42.708;23.286;2023-04-24T00:13:50;13.69;55.96
79698;SHT31;69168;42.708;23.286;2023-04-24T00:16:16;13.65;56.26
79698;SHT31;69168;42.708;23.286;2023-04-24T00:18:41;13.55;55.70
79698;SHT31;69168;42.708;23.286;2023-04-24T00:21:07;13.50;54.18
79698;SHT31;69168;42.708;23.286;2023-04-24T00:23:32;13.50;54.56
79698;SHT31;69168;42.708;23.286;2023-04-24T00:25:57;13.46;55.21
79698;SHT31;69168;42.708;23.286;2023-04-24T00:28:23;13.49;56.04
79698;SHT31;69168;42.708;23.286;2023-04-24T00:30:48;13.19;54.31
79698;SHT31;69168;42.708;23.286;2023-04-24T00:33:14;13.32;54.51
79698;SHT31;69168;42.708;23.286;2023-04-24T00:35:40;13.12;55.40
79698;SHT31;69168;42.708;23.286;2023-04-24T00:38:05;13.08;55.07
79698;SHT31;69168;42.708;23.286;2023-04-24T00:40:31;13.07;55.68
79698;SHT31;69168;42.708;23.286;2023-04-24T00:42:56;13.19;56.53
79698;SHT31;69168;42.708;23.286;2023-04-24T00:45:22;13.26;58.59
79698;SHT31;69168;42.708;23.286;2023-04-24T00:47:48;13.34;58.19
79698;SHT31;69168;42.708;23.286;2023-04-24T00:50:15;13.25;57.64
79698;SHT31;69168;42.708;23.286;2023-04-24T00:52:40;13.18;57.55
79698;SHT31;69168;42.708;23.286;2023-04-24T00:55:06;13.08;57.13
79698;SHT31;69168;42.708;23.286;2023-04-24T00:57:32;12.97;56.89
79698;SHT31;69168;42.708;23.286;2023-04-24T00:59:58;12.76;56.43
79698;SHT31;69168;42.708;23.286;2023-04-24T01:02:24;12.70;57.92
79698;SHT31;69168;42.708;23.286;2023-04-24T01:04:53;12.66;58.02
79698;SHT31;69168;42.708;23.286;2023-04-24T01:07:20;12.59;59.33
79698;SHT31;69168;42.708;23.286;2023-04-24T01:09:47;12.85;60.67
79698;SHT31;69168;42.708;23.286;2023-04-24T01:12:15;12.97;59.90
79698;SHT31;69168;42.708;23.286;2023-04-24T01:14:40;13.00;61.81
79698;SHT31;69168;42.708;23.286;2023-04-24T01:17:06;13.00;61.20
79698;SHT31;69168;42.708;23.286;2023-04-24T01:19:32;13.01;60.70
79698;SHT31;69168;42.708;23.286;2023-04-24T01:21:58;12.94;60.04
79698;SHT31;69168;42.708;23.286;2023-04-24T01:24:24;12.70;60.47
79698;SHT31;69168;42.708;23.286;2023-04-24T01:26:50;12.84;60.50
79698;SHT31;69168;42.708;23.286;2023-04-24T01:29:15;12.84;58.56
79698;SHT31;69168;42.708;23.286;2023-04-24T01:31:41;12.88;58.33
79698;SHT31;69168;42.708;23.286;2023-04-24T01:34:07;12.72;59.17
79698;SHT31;69168;42.708;23.286;2023-04-24T01:36:34;12.70;59.81
79698;SHT31;69168;42.708;23.286;2023-04-24T01:39:00;12.72;57.49
79698;SHT31;69168;42.708;23.286;2023-04-24T01:41:26;12.68;58.82
79698;SHT31;69168;42.708;23.286;2023-04-24T01:43:52;12.66;57.70
79698;SHT31;69168;42.708;23.286;2023-04-24T01:46:17;12.43;58.77
79698;SHT31;69168;42.708;23.286;2023-04-24T01:48:45;12.40;58.50
79698;SHT31;69168;42.708;23.286;2023-04-24T01:51:10;12.39;59.07
79698;SHT31;69168;42.708;23.286;2023-04-24T01:53:36;12.46;58.43
79698;SHT31;69168;42.708;23.286;2023-04-24T01:56:01;12.47;57.84
79698;SHT31;69168;42.708;23.286;2023-04-24T01:58:27;12.39;58.19
79698;SHT31;69168;42.708;23.286;2023-04-24T02:00:56;12.33;58.06
79698;SHT31;69168;42.708;23.286;2023-04-24T02:03:21;12.26;58.83
79698;SHT31;69168;42.708;23.286;2023-04-24T02:05:47;12.21;58.78
79698;SHT31;69168;42.708;23.286;2023-04-24T02:08:12;12.29;58.74
79698;SHT31;69168;42.708;23.286;2023-04-24T02:10:38;12.32;59.62
79698;SHT31;69168;42.708;23.286;2023-04-24T02:13:03;12.22;59.50
79698;SHT31;69168;42.708;23.286;2023-04-24T02:15:29;12.14;59.03
79698;SHT31;69168;42.708;23.286;2023-04-24T02:17:55;12.17;59.57
79698;SHT31;69168;42.708;23.286;2023-04-24T02:20:20;12.17;59.89
79698;SHT31;69168;42.708;23.286;2023-04-24T02:22:46;11.94;59.21
79698;SHT31;69168;42.708;23.286;2023-04-24T02:25:11;12.02;59.70
79698;SHT31;69168;42.708;23.286;2023-04-24T02:27:37;11.85;59.88
79698;SHT31;69168;42.708;23.286;2023-04-24T02:30:02;11.87;60.89
79698;SHT31;69168;42.708;23.286;2023-04-24T02:32:28;11.95;61.24
79698;SHT31;69168;42.708;23.286;2023-04-24T02:34:56;12.01;60.80
79698;SHT31;69168;42.708;23.286;2023-04-24T02:37:21;12.01;59.86
79698;SHT31;69168;42.708;23.286;2023-04-24T02:39:46;12.02;59.66
79698;SHT31;69168;42.708;23.286;2023-04-24T02:42:12;11.98;60.82
79698;SHT31;69168;42.708;23.286;2023-04-24T02:44:37;11.80;61.80
79698;SHT31;69168;42.708;23.286;2023-04-24T02:47:03;11.71;61.89
79698;SHT31;69168;42.708;23.286;2023-04-24T02:49:28;11.57;61.75
79698;SHT31;69168;42.708;23.286;2023-04-24T02:51:54;11.52;61.89
79698;SHT31;69168;42.708;23.286;2023-04-24T02:54:19;11.26;61.56
79698;SHT31;69168;42.708;23.286;2023-04-24T02:56:45;11.18;62.01
79698;SHT31;69168;42.708;23.286;2023-04-24T02:59:10;11.36;62.54
79698;SHT31;69168;42.708;23.286;2023-04-24T03:01:36;11.37;62.43
79698;SHT31;69168;42.708;23.286;2023-04-24T03:04:01;11.37;62.99
79698;SHT31;69168;42.708;23.286;2023-04-24T03:06:27;11.47;63.37
79698;SHT31;69168;42.708;23.286;2023-04-24T03:08:53;11.50;62.78
79698;SHT31;69168;42.708;23.286;2023-04-24T03:11:19;11.44;62.89
79698;SHT31;69168;42.708;23.286;2023-04-24T03:13:45;11.50;63.24
79698;SHT31;69168;42.708;23.286;2023-04-24T03:16:10;11.40;63.26
79698;SHT31;69168;42.708;23.286;2023-04-24T03:18:36;11.32;62.86
79698;SHT31;69168;42.708;23.286;2023-04-24T03:21:01;11.16;62.76
79698;SHT31;69168;42.708;23.286;2023-04-24T03:23:28;11.20;63.41
79698;SHT31;69168;42.708;23.286;2023-04-24T03:25:53;11.28;62.32
79698;SHT31;69168;42.708;23.286;2023-04-24T03:28:20;11.29;62.55
79698;SHT31;69168;42.708;23.286;2023-04-24T03:30:45;11.30;62.77
79698;SHT31;69168;42.708;23.286;2023-04-24T03:33:11;11.49;62.83
79698;SHT31;69168;42.708;23.286;2023-04-24T03:35:36;11.54;62.70
79698;SHT31;69168;42.708;23.286;2023-04-24T03:38:02;11.57;62.42
79698;SHT31;69168;42.708;23.286;2023-04-24T03:40:29;11.66;61.67
79698;SHT31;69168;42.708;23.286;2023-04-24T03:42:54;11.46;62.47
79698;SHT31;69168;42.708;23.286;2023-04-24T03:45:20;11.28;63.18
79698;SHT31;69168;42.708;23.286;2023-04-24T03:47:45;11.37;63.51
79698;SHT31;69168;42.708;23.286;2023-04-24T03:50:11;11.46;63.93
79698;SHT31;69168;42.708;23.286;2023-04-24T03:52:36;11.52;63.50
79698;SHT31;69168;42.708;23.286;2023-04-24T03:55:02;11.54;63.24
79698;SHT31;69168;42.708;23.286;2023-04-24T03:57:28;11.37;62.08
79698;SHT31;69168;42.708;23.286;2023-04-24T03:59:53;11.42;62.32
79698;SHT31;69168;42.708;23.286;2023-04-24T04:02:19;11.42;61.95
79698;SHT31;69168;42.708;23.286;2023-04-24T04:04:44;11.49;62.56
79698;SHT31;69168;42.708;23.286;2023-04-24T04:07:10;11.33;62.35
79698;SHT31;69168;42.708;23.286;2023-04-24T04:09:36;11.39;63.07
79698;SHT31;69168;42.708;23.286;2023-04-24T04:12:02;11.40;62.10
79698;SHT31;69168;42.708;23.286;2023-04-24T04:14:28;11.49;61.10
79698;SHT31;69168;42.708;23.286;2023-04-24T04:16:53;11.36;62.01
79698;SHT31;69168;42.708;23.286;2023-04-24T04:19:19;11.44;61.68
79698;SHT31;69168;42.708;23.286;2023-04-24T04:21:44;11.40;63.17
79698;SHT31;69168;42.708;23.286;2023-04-24T04:24:11;11.43;62.29
79698;SHT31;69168;42.708;23.286;2023-04-24T04:26:37;11.43;62.09
79698;SHT31;69168;42.708;23.286;2023-04-24T04:29:03;11.26;62.50
79698;SHT31;69168;42.708;23.286;2023-04-24T04:31:29;11.20;63.04
79698;SHT31;69168;42.708;23.286;2023-04-24T04:33:55;11.37;63.17
79698;SHT31;69168;42.708;23.286;2023-04-24T04:36:20;11.39;62.08
79698;SHT31;69168;42.708;23.286;2023-04-24T04:38:46;11.59;62.45
79698;SHT31;69168;42.708;23.286;2023-04-24T04:41:11;11.40;61.96
79698;SHT31;69168;42.708;23.286;2023-04-24T04:43:37;11.28;61.92
79698;SHT31;69168;42.708;23.286;2023-04-24T04:46:04;11.36;61.88
79698;SHT31;69168;42.708;23.286;2023-04-24T04:48:30;11.47;62.19
79698;SHT31;69168;42.708;23.286;2023-04-24T04:50:57;11.33;62.42
79698;SHT31;69168;42.708;23.286;2023-04-24T04:53:23;11.26;63.28
79698;SHT31;69168;42.708;23.286;2023-04-24T04:55:48;11.22;63.52
79698;SHT31;69168;42.708;23.286;2023-04-24T04:58:14;11.32;63.38
79698;SHT31;69168;42.708;23.286;2023-04-24T05:00:39;11.43;63.28
79698;SHT31;69168;42.708;23.286;2023-04-24T05:03:05;11.64;62.78
79698;SHT31;69168;42.708;23.286;2023-04-24T05:05:30;11.47;62.44
79698;SHT31;69168;42.708;23.286;2023-04-24T05:07:56;11.36;62.68
79698;SHT31;69168;42.708;23.286;2023-04-24T05:10:21;11.35;63.35
79698;SHT31;69168;42.708;23.286;2023-04-24T05:12:46;11.60;62.62
79698;SHT31;69168;42.708;23.286;2023-04-24T05:15:12;11.70;62.07
79698;SHT31;69168;42.708;23.286;2023-04-24T05:17:37;11.59;61.75
79698;SHT31;69168;42.708;23.286;2023-04-24T05:20:05;11.47;60.66
79698;SHT31;69168;42.708;23.286;2023-04-24T05:22:31;11.69;60.19
79698;SHT31;69168;42.708;23.286;2023-04-24T05:24:57;11.85;60.45
79698;SHT31;69168;42.708;23.286;2023-04-24T05:27:22;12.04;60.12
79698;SHT31;69168;42.708;23.286;2023-04-24T05:29:48;12.08;59.95
79698;SHT31;69168;42.708;23.286;2023-04-24T05:32:13;12.04;60.25
79698;SHT31;69168;42.708;23.286;2023-04-24T05:34:39;12.08;60.20
79698;SHT31;69168;42.708;23.286;2023-04-24T05:37:04;12.08;59.32
79698;SHT31;69168;42.708;23.286;2023-04-24T05:39:33;12.19;59.78
79698;SHT31;69168;42.708;23.286;2023-04-24T05:42:00;12.21;59.27
79698;SHT31;69168;42.708;23.286;2023-04-24T05:44:26;12.29;58.12
79698;SHT31;69168;42.708;23.286;2023-04-24T05:46:52;12.28;57.90
79698;SHT31;69168;42.708;23.286;2023-04-24T05:49:17;12.36;57.31
79698;SHT31;69168;42.708;23.286;2023-04-24T05:51:42;12.40;56.80
79698;SHT31;69168;42.708;23.286;2023-04-24T05:54:08;12.43;56.70
79698;SHT31;69168;42.708;23.286;2023-04-24T05:56:34;12.52;56.79
79698;SHT31;69168;42.708;23.286;2023-04-24T05:58:59;12.56;56.39
79698;SHT31;69168;42.708;23.286;2023-04-24T06:01:25;12.61;56.13
79698;SHT31;69168;42.708;23.286;2023-04-24T06:03:50;12.49;56.65
79698;SHT31;69168;42.708;23.286;2023-04-24T06:06:16;12.56;55.61
79698;SHT31;69168;42.708;23.286;2023-04-24T06:08:41;12.59;55.73
79698;SHT31;69168;42.708;23.286;2023-04-24T06:11:09;12.66;55.77
79698;SHT31;69168;42.708;23.286;2023-04-24T06:13:34;12.85;55.81
79698;SHT31;69168;42.708;23.286;2023-04-24T06:16:00;12.94;55.27
79698;SHT31;69168;42.708;23.286;2023-04-24T06:18:28;13.05;54.78
79698;SHT31;69168;42.708;23.286;2023-04-24T06:20:57;13.05;54.79
79698;SHT31;69168;42.708;23.286;2023-04-24T06:23:22;13.12;54.82
79698;SHT31;69168;42.708;23.286;2023-04-24T06:25:47;13.26;54.17
79698;SHT31;69168;42.708;23.286;2023-04-24T06:28:13;13.34;54.06
79698;SHT31;69168;42.708;23.286;2023-04-24T06:30:38;13.42;54.05
79698;SHT31;69168;42.708;23.286;2023-04-24T06:33:04;13.52;53.33
79698;SHT31;69168;42.708;23.286;2023-04-24T06:35:30;13.49;53.38
79698;SHT31;69168;42.708;23.286;2023-04-24T06:37:55;13.52;53.40
79698;SHT31;69168;42.708;23.286;2023-04-24T06:40:21;13.57;53.50
79698;SHT31;69168;42.708;23.286;2023-04-24T06:42:47;13.55;53.02
79698;SHT31;69168;42.708;23.286;2023-04-24T06:45:13;13.62;53.07
79698;SHT31;69168;42.708;23.286;2023-04-24T06:47:38;13.71;53.06
79698;SHT31;69168;42.708;23.286;2023-04-24T06:50:04;13.74;52.58
79698;SHT31;69168;42.708;23.286;2023-04-24T06:52:30;13.87;52.76
79698;SHT31;69168;42.708;23.286;2023-04-24T06:55:02;13.83;53.11
79698;SHT31;69168;42.708;23.286;2023-04-24T06:57:28;13.70;52.73
79698;SHT31;69168;42.708;23.286;2023-04-24T06:59:57;13.62;53.47
79698;SHT31;69168;42.708;23.286;2023-04-24T07:02:22;13.73;53.31
79698;SHT31;69168;42.708;23.286;2023-04-24T07:04:48;13.85;53.30
79698;SHT31;69168;42.708;23.286;2023-04-24T07:07:17;14.00;53.06
79698;SHT31;69168;42.708;23.286;2023-04-24T07:09:42;14.08;52.74
79698;SHT31;69168;42.708;23.286;2023-04-24T07:12:09;14.08;52.80
79698;SHT31;69168;42.708;23.286;2023-04-24T07:14:39;14.11;53.03
79698;SHT31;69168;42.708;23.286;2023-04-24T07:17:05;14.28;52.10
79698;SHT31;69168;42.708;23.286;2023-04-24T07:19:32;14.20;52.52
79698;SHT31;69168;42.708;23.286;2023-04-24T07:21:58;14.31;53.31
79698;SHT31;69168;42.708;23.286;2023-04-24T07:24:25;14.48;52.60
79698;SHT31;69168;42.708;23.286;2023-04-24T07:26:51;14.45;52.78
79698;SHT31;69168;42.708;23.286;2023-04-24T07:29:17;14.39;53.09
79698;SHT31;69168;42.708;23.286;2023-04-24T07:31:43;14.39;53.34
79698;SHT31;69168;42.708;23.286;2023-04-24T07:34:09;14.32;53.23
79698;SHT31;69168;42.708;23.286;2023-04-24T07:36:34;14.45;53.12
79698;SHT31;69168;42.708;23.286;2023-04-24T07:39:00;14.48;53.38
79698;SHT31;69168;42.708;23.286;2023-04-24T07:41:25;14.53;53.14
79698;SHT31;69168;42.708;23.286;2023-04-24T07:43:52;14.46;53.40
79698;SHT31;69168;42.708;23.286;2023-04-24T07:46:19;14.49;53.10
79698;SHT31;69168;42.708;23.286;2023-04-24T07:48:45;14.57;53.48
79698;SHT31;69168;42.708;23.286;2023-04-24T07:51:14;14.63;53.30
79698;SHT31;69168;42.708;23.286;2023-04-24T07:53:39;14.75;52.69
79698;SHT31;69168;42.708;23.286;2023-04-24T07:56:05;14.75;52.14
79698;SHT31;69168;42.708;23.286;2023-04-24T07:58:31;14.77;52.14
79698;SHT31;69168;42.708;23.286;2023-04-24T08:00:56;15.25;50.35
79698;SHT31;69168;42.708;23.286;2023-04-24T08:03:21;15.00;51.40
79698;SHT31;69168;42.708;23.286;2023-04-24T08:05:47;14.93;52.29
79698;SHT31;69168;42.708;23.286;2023-04-24T08:08:13;14.86;51.96
79698;SHT31;69168;42.708;23.286;2023-04-24T08:10:38;15.00;52.32
79698;SHT31;69168;42.708;23.286;2023-04-24T08:13:04;15.32;51.44
79698;SHT31;69168;42.708;23.286;2023-04-24T08:15:30;15.21;51.81
79698;SHT31;69168;42.708;23.286;2023-04-24T08:17:56;15.27;51.65
79698;SHT31;69168;42.708;23.286;2023-04-24T08:20:22;15.32;52.03
79698;SHT31;69168;42.708;23.286;2023-04-24T08:22:47;15.35;51.66
79698;SHT31;69168;42.708;23.286;2023-04-24T08:25:14;15.41;51.37
79698;SHT31;69168;42.708;23.286;2023-04-24T08:27:39;15.34;51.35
79698;SHT31;69168;42.708;23.286;2023-04-24T08:30:06;15.71;50.45
79698;SHT31;69168;42.708;23.286;2023-04-24T08:32:32;15.82;50.15
79698;SHT31;69168;42.708;23.286;2023-04-24T08:34:59;15.69;51.35
79698;SHT31;69168;42.708;23.286;2023-04-24T08:37:26;15.65;51.33
79698;SHT31;69168;42.708;23.286;2023-04-24T08:39:52;15.69;51.64
79698;SHT31;69168;42.708;23.286;2023-04-24T08:42:19;15.73;52.10
79698;SHT31;69168;42.708;23.286;2023-04-24T08:44:45;15.82;50.96
79698;SHT31;69168;42.708;23.286;2023-04-24T08:47:11;15.87;50.38
79698;SHT31;69168;42.708;23.286;2023-04-24T08:49:37;15.98;51.52
79698;SHT31;69168;42.708;23.286;2023-04-24T08:52:04;16.13;51.91
79698;SHT31;69168;42.708;23.286;2023-04-24T08:54:31;16.29;50.44
79698;SHT31;69168;42.708;23.286;2023-04-24T08:57:00;16.28;50.96
79698;SHT31;69168;42.708;23.286;2023-04-24T08:59:31;16.55;50.21
79698;SHT31;69168;42.708;23.286;2023-04-24T09:01:57;16.55;49.79
79698;SHT31;69168;42.708;23.286;2023-04-24T09:04:24;16.60;50.41
79698;SHT31;69168;42.708;23.286;2023-04-24T09:06:56;16.70;49.62
79698;SHT31;69168;42.708;23.286;2023-04-24T09:09:23;16.88;49.28
79698;SHT31;69168;42.708;23.286;2023-04-24T09:11:50;16.99;51.16
79698;SHT31;69168;42.708;23.286;2023-04-24T09:14:16;17.17;51.10
79698;SHT31;69168;42.708;23.286;2023-04-24T09:16:42;17.28;49.46
79698;SHT31;69168;42.708;23.286;2023-04-24T09:19:07;17.35;49.40
79698;SHT31;69168;42.708;23.286;2023-04-24T09:21:34;17.32;48.68
79698;SHT31;69168;42.708;23.286;2023-04-24T09:24:02;17.39;48.54
79698;SHT31;69168;42.708;23.286;2023-04-24T09:26:34;17.36;48.79
79698;SHT31;69168;42.708;23.286;2023-04-24T09:29:00;17.39;47.99
79698;SHT31;69168;42.708;23.286;2023-04-24T09:31:27;17.51;48.79
79698;SHT31;69168;42.708;23.286;2023-04-24T09:34:00;17.70;48.31
79698;SHT31;69168;42.708;23.286;2023-04-24T09:36:33;17.76;48.43
79698;SHT31;69168;42.708;23.286;2023-04-24T09:39:00;17.86;48.30
79698;SHT31;69168;42.708;23.286;2023-04-24T09:41:26;17.90;48.24
79698;SHT31;69168;42.708;23.286;2023-04-24T09:43:57;18.11;46.77
79698;SHT31;69168;42.708;23.286;2023-04-24T09:46:30;18.01;46.15
79698;SHT31;69168;42.708;23.286;2023-04-24T09:48:57;18.14;44.89
79698;SHT31;69168;42.708;23.286;2023-04-24T09:51:36;18.00;43.56
79698;SHT31;69168;42.708;23.286;2023-04-24T09:54:04;18.04;46.69
79698;SHT31;69168;42.708;23.286;2023-04-24T09:56:32;18.21;46.63
79698;SHT31;69168;42.708;23.286;2023-04-24T09:59:05;18.44;45.98
79698;SHT31;69168;42.708;23.286;2023-04-24T10:01:31;18.70;45.72
79698;SHT31;69168;42.708;23.286;2023-04-24T10:03:57;18.85;45.40
79698;SHT31;69168;42.708;23.286;2023-04-24T10:06:31;18.96;43.19
79698;SHT31;69168;42.708;23.286;2023-04-24T10:09:00;19.27;43.02
79698;SHT31;69168;42.708;23.286;2023-04-24T10:11:29;19.28;42.01
79698;SHT31;69168;42.708;23.286;2023-04-24T10:13:55;19.38;43.16
79698;SHT31;69168;42.708;23.286;2023-04-24T10:16:22;19.58;44.49
79698;SHT31;69168;42.708;23.286;2023-04-24T10:18:48;19.85;43.42
79698;SHT31;69168;42.708;23.286;2023-04-24T10:21:15;20.09;42.42
79698;SHT31;69168;42.708;23.286;2023-04-24T10:23:42;20.23;40.13
79698;SHT31;69168;42.708;23.286;2023-04-24T10:26:09;20.21;38.86
79698;SHT31;69168;42.708;23.286;2023-04-24T10:28:36;20.34;40.22
79698;SHT31;69168;42.708;23.286;2023-04-24T10:31:01;20.35;40.51
79698;SHT31;69168;42.708;23.286;2023-04-24T10:33:28;20.40;40.31
79698;SHT31;69168;42.708;23.286;2023-04-24T10:35:55;20.31;40.29
79698;SHT31;69168;42.708;23.286;2023-04-24T10:38:26;20.43;39.94
79698;SHT31;69168;42.708;23.286;2023-04-24T10:41:06;20.24;39.69
79698;SHT31;69168;42.708;23.286;2023-04-24T10:43:33;20.20;40.06
79698;SHT31;69168;42.708;23.286;2023-04-24T10:46:03;20.10;40.11
79698;SHT31;69168;42.708;23.286;2023-04-24T10:48:29;19.90;39.33
79698;SHT31;69168;42.708;23.286;2023-04-24T10:50:55;19.73;39.09
79698;SHT31;69168;42.708;23.286;2023-04-24T10:53:27;19.51;39.36
79698;SHT31;69168;42.708;23.286;2023-04-24T10:56:07;19.55;39.05
79698;SHT31;69168;42.708;23.286;2023-04-24T10:58:42;19.47;39.81
79698;SHT31;69168;42.708;23.286;2023-04-24T11:01:38;19.55;40.33
79698;SHT31;69168;42.708;23.286;2023-04-24T11:04:03;19.48;40.63
79698;SHT31;69168;42.708;23.286;2023-04-24T11:06:32;19.44;40.95
79698;SHT31;69168;42.708;23.286;2023-04-24T11:09:10;19.38;41.98
79698;SHT31;69168;42.708;23.286;2023-04-24T11:11:44;19.20;40.84
79698;SHT31;69168;42.708;23.286;2023-04-24T11:14:10;19.08;42.26
79698;SHT31;69168;42.708;23.286;2023-04-24T11:16:52;18.86;41.00
79698;SHT31;69168;42.708;23.286;2023-04-24T11:19:27;18.79;43.01
79698;SHT31;69168;42.708;23.286;2023-04-24T11:22:02;17.04;64.01
79698;SHT31;69168;42.708;23.286;2023-04-24T11:27:13;14.62;73.46
79698;SHT31;69168;42.708;23.286;2023-04-24T11:29:44;14.65;81.15
79698;SHT31;69168;42.708;23.286;2023-04-24T11:37:35;15.30;76.66
79698;SHT31;69168;42.708;23.286;2023-04-24T11:40:02;15.62;77.93
79698;SHT31;69168;42.708;23.286;2023-04-24T11:42:36;15.93;72.41
79698;SHT31;69168;42.708;23.286;2023-04-24T11:45:07;16.28;68.72
79698;SHT31;69168;42.708;23.286;2023-04-24T11:47:36;16.58;64.48
79698;SHT31;69168;42.708;23.286;2023-04-24T11:50:04;16.65;63.32
79698;SHT31;69168;42.708;23.286;2023-04-24T11:52:30;16.75;61.57
79698;SHT31;69168;42.708;23.286;2023-04-24T11:54:56;16.70;63.53
79698;SHT31;69168;42.708;23.286;2023-04-24T11:57:23;16.93;61.18
79698;SHT31;69168;42.708;23.286;2023-04-24T11:59:51;17.17;59.13
79698;SHT31;69168;42.708;23.286;2023-04-24T12:04:47;17.80;56.79
79698;SHT31;69168;42.708;23.286;2023-04-24T12:07:13;17.83;53.51
79698;SHT31;69168;42.708;23.286;2023-04-24T12:09:56;17.83;55.87
79698;SHT31;69168;42.708;23.286;2023-04-24T12:12:24;17.98;53.63
79698;SHT31;69168;42.708;23.286;2023-04-24T12:14:55;18.00;47.92
79698;SHT31;69168;42.708;23.286;2023-04-24T12:17:32;17.83;53.43
79698;SHT31;69168;42.708;23.286;2023-04-24T12:20:06;17.75;50.42
79698;SHT31;69168;42.708;23.286;2023-04-24T12:25:16;17.76;57.82
79698;SHT31;69168;42.708;23.286;2023-04-24T12:27:42;17.87;53.29
79698;SHT31;69168;42.708;23.286;2023-04-24T12:30:13;17.80;53.52
79698;SHT31;69168;42.708;23.286;2023-04-24T12:32:47;17.86;53.88
79698;SHT31;69168;42.708;23.286;2023-04-24T12:35:13;18.01;50.94
79698;SHT31;69168;42.708;23.286;2023-04-24T12:37:42;18.33;49.89
79698;SHT31;69168;42.708;23.286;2023-04-24T12:40:12;18.59;50.10
79698;SHT31;69168;42.708;23.286;2023-04-24T12:42:45;18.58;48.80
79698;SHT31;69168;42.708;23.286;2023-04-24T12:45:12;18.79;51.40
79698;SHT31;69168;42.708;23.286;2023-04-24T12:47:38;19.34;49.16
79698;SHT31;69168;42.708;23.286;2023-04-24T12:50:04;19.72;46.44
79698;SHT31;69168;42.708;23.286;2023-04-24T12:52:31;19.65;44.86
79698;SHT31;69168;42.708;23.286;2023-04-24T12:54:58;19.62;47.71
79698;SHT31;69168;42.708;23.286;2023-04-24T12:57:24;19.55;45.21
79698;SHT31;69168;42.708;23.286;2023-04-24T12:59:50;19.62;46.91
79698;SHT31;69168;42.708;23.286;2023-04-24T13:02:16;19.86;47.60
79698;SHT31;69168;42.708;23.286;2023-04-24T13:04:46;20.09;45.10
79698;SHT31;69168;42.708;23.286;2023-04-24T13:07:13;20.31;44.69
79698;SHT31;69168;42.708;23.286;2023-04-24T13:09:40;20.28;42.40
79698;SHT31;69168;42.708;23.286;2023-04-24T13:12:06;20.37;41.92
79698;SHT31;69168;42.708;23.286;2023-04-24T13:14:32;20.23;42.59
79698;SHT31;69168;42.708;23.286;2023-04-24T13:16:57;20.45;41.86
79698;SHT31;69168;42.708;23.286;2023-04-24T13:19:26;21.27;40.64
79698;SHT31;69168;42.708;23.286;2023-04-24T13:21:53;21.78;39.61
79698;SHT31;69168;42.708;23.286;2023-04-24T13:24:20;22.17;37.88
79698;SHT31;69168;42.708;23.286;2023-04-24T13:26:45;22.39;39.30
79698;SHT31;69168;42.708;23.286;2023-04-24T13:29:11;22.55;37.60
79698;SHT31;69168;42.708;23.286;2023-04-24T13:31:36;22.47;38.23
79698;SHT31;69168;42.708;23.286;2023-04-24T13:34:03;23.24;37.95
79698;SHT31;69168;42.708;23.286;2023-04-24T13:36:29;23.78;36.14
79698;SHT31;69168;42.708;23.286;2023-04-24T13:38:55;24.04;34.58
79698;SHT31;69168;42.708;23.286;2023-04-24T13:41:21;23.86;34.66
79698;SHT31;69168;42.708;23.286;2023-04-24T13:43:46;23.82;32.73
79698;SHT31;69168;42.708;23.286;2023-04-24T13:46:12;23.55;33.88
79698;SHT31;69168;42.708;23.286;2023-04-24T13:48:37;23.77;33.24
79698;SHT31;69168;42.708;23.286;2023-04-24T13:51:03;23.75;33.47
79698;SHT31;69168;42.708;23.286;2023-04-24T13:53:28;23.64;33.44
79698;SHT31;69168;42.708;23.286;2023-04-24T13:55:54;23.20;33.85
79698;SHT31;69168;42.708;23.286;2023-04-24T13:58:19;23.10;33.41
79698;SHT31;69168;42.708;23.286;2023-04-24T14:00:45;23.29;33.89
79698;SHT31;69168;42.708;23.286;2023-04-24T14:03:11;23.30;33.59
79698;SHT31;69168;42.708;23.286;2023-04-24T14:05:37;23.42;32.95
79698;SHT31;69168;42.708;23.286;2023-04-24T14:08:02;23.91;32.88
79698;SHT31;69168;42.708;23.286;2023-04-24T14:10:27;24.33;32.16
79698;SHT31;69168;42.708;23.286;2023-04-24T14:12:53;24.87;32.04
79698;SHT31;69168;42.708;23.286;2023-04-24T14:15:19;25.20;30.20
79698;SHT31;69168;42.708;23.286;2023-04-24T14:17:44;24.77;30.95
79698;SHT31;69168;42.708;23.286;2023-04-24T14:20:12;25.18;30.55
79698;SHT31;69168;42.708;23.286;2023-04-24T14:22:38;24.94;30.45
79698;SHT31;69168;42.708;23.286;2023-04-24T14:25:04;24.77;30.97
79698;SHT31;69168;42.708;23.286;2023-04-24T14:27:31;24.23;30.85
79698;SHT31;69168;42.708;23.286;2023-04-24T14:29:57;23.84;32.28
79698;SHT31;69168;42.708;23.286;2023-04-24T14:32:22;24.09;34.91
79698;SHT31;69168;42.708;23.286;2023-04-24T14:34:48;24.01;36.28
79698;SHT31;69168;42.708;23.286;2023-04-24T14:37:14;23.61;38.06
79698;SHT31;69168;42.708;23.286;2023-04-24T14:39:39;23.31;37.90
79698;SHT31;69168;42.708;23.286;2023-04-24T14:42:05;22.79;39.06
79698;SHT31;69168;42.708;23.286;2023-04-24T14:44:31;22.29;39.84
79698;SHT31;69168;42.708;23.286;2023-04-24T14:46:57;21.96;41.41
79698;SHT31;69168;42.708;23.286;2023-04-24T14:49:23;21.66;41.82
79698;SHT31;69168;42.708;23.286;2023-04-24T14:51:48;21.22;42.36
79698;SHT31;69168;42.708;23.286;2023-04-24T14:54:14;21.13;42.65
79698;SHT31;69168;42.708;23.286;2023-04-24T14:56:39;20.92;43.28
79698;SHT31;69168;42.708;23.286;2023-04-24T14:59:06;20.65;43.97
79698;SHT31;69168;42.708;23.286;2023-04-24T15:01:32;20.52;43.96
79698;SHT31;69168;42.708;23.286;2023-04-24T15:03:57;20.54;44.16
79698;SHT31;69168;42.708;23.286;2023-04-24T15:06:22;20.28;44.21
79698;SHT31;69168;42.708;23.286;2023-04-24T15:08:48;20.01;45.01
79698;SHT31;69168;42.708;23.286;2023-04-24T15:11:14;19.94;44.97
79698;SHT31;69168;42.708;23.286;2023-04-24T15:13:39;19.94;44.99
79698;SHT31;69168;42.708;23.286;2023-04-24T15:16:05;20.01;44.19
79698;SHT31;69168;42.708;23.286;2023-04-24T15:18:30;19.76;44.24
79698;SHT31;69168;42.708;23.286;2023-04-24T15:20:56;19.82;44.50
79698;SHT31;69168;42.708;23.286;2023-04-24T15:23:22;19.82;44.34
79698;SHT31;69168;42.708;23.286;2023-04-24T15:25:47;19.80;43.97